sensor_id;sensor_type;location;lat;lon;timestamp;P1;P2;P0
34176;PMS7003;20450;49.074;9.158;2022-08-19T00:02:03;14.40;14.40;12.60
34176;PMS7003;20450;49.074;9.158;2022-08-19T00:04:31;18.40;18.40;14.00
34176;PMS7003;20450;49.074;9.158;2022-08-19T00:07:01;17.40;17.40;11.60
34176;PMS7003;20450;49.074;9.158;2022-08-19T00:09:30;15.00;15.00;10.80
34176;PMS7003;20450;49.074;9.158;2022-08-19T00:11:58;17.80;17.80;13.60
34176;PMS7003;20450;49.074;9.158;2022-08-19T00:14:26;20.40;19.40;14.60
34176;PMS7003;20450;49.074;9.158;2022-08-19T00:16:55;11.80;10.60;6.60
34176;PMS7003;20450;49.074;9.158;2022-08-19T00:19:22;18.40;18.40;14.00
34176;PMS7003;20450;49.074;9.158;2022-08-19T00:21:50;15.60;14.60;12.40
34176;PMS7003;20450;49.074;9.158;2022-08-19T00:24:17;17.40;16.40;13.80
34176;PMS7003;20450;49.074;9.158;2022-08-19T00:26:45;20.60;20.60;14.20
34176;PMS7003;20450;49.074;9.158;2022-08-19T00:29:14;18.20;18.20;15.20
34176;PMS7003;20450;49.074;9.158;2022-08-19T00:31:44;16.00;16.00;11.60
34176;PMS7003;20450;49.074;9.158;2022-08-19T00:34:12;17.20;16.20;12.00
34176;PMS7003;20450;49.074;9.158;2022-08-19T00:36:41;18.20;18.20;14.40
34176;PMS7003;20450;49.074;9.158;2022-08-19T00:39:08;17.60;17.60;14.00
34176;PMS7003;20450;49.074;9.158;2022-08-19T00:41:37;18.20;18.20;13.80
34176;PMS7003;20450;49.074;9.158;2022-08-19T00:44:05;17.40;16.40;12.80
34176;PMS7003;20450;49.074;9.158;2022-08-19T00:46:40;13.60;13.00;9.60
34176;PMS7003;20450;49.074;9.158;2022-08-19T00:49:26;17.80;16.60;12.00
34176;PMS7003;20450;49.074;9.158;2022-08-19T00:52:12;21.60;19.60;14.20
34176;PMS7003;20450;49.074;9.158;2022-08-19T00:54:46;17.00;17.00;12.40
34176;PMS7003;20450;49.074;9.158;2022-08-19T00:57:18;19.40;16.00;12.00
34176;PMS7003;20450;49.074;9.158;2022-08-19T00:59:55;17.60;17.60;13.40
34176;PMS7003;20450;49.074;9.158;2022-08-19T01:02:31;17.40;17.40;12.40
34176;PMS7003;20450;49.074;9.158;2022-08-19T01:04:59;19.00;18.00;14.60
34176;PMS7003;20450;49.074;9.158;2022-08-19T01:07:28;19.20;17.40;14.40
34176;PMS7003;20450;49.074;9.158;2022-08-19T01:10:03;20.00;20.00;13.40
34176;PMS7003;20450;49.074;9.158;2022-08-19T01:12:33;17.40;15.20;12.00
34176;PMS7003;20450;49.074;9.158;2022-08-19T01:15:01;18.40;18.40;14.20
34176;PMS7003;20450;49.074;9.158;2022-08-19T01:17:29;17.60;17.60;12.40
34176;PMS7003;20450;49.074;9.158;2022-08-19T01:19:58;17.80;17.00;13.40
34176;PMS7003;20450;49.074;9.158;2022-08-19T01:22:28;16.20;16.20;13.00
34176;PMS7003;20450;49.074;9.158;2022-08-19T01:25:01;14.20;14.20;12.00
34176;PMS7003;20450;49.074;9.158;2022-08-19T01:27:41;21.40;18.60;12.80
34176;PMS7003;20450;49.074;9.158;2022-08-19T01:30:15;19.80;18.60;14.20
34176;PMS7003;20450;49.074;9.158;2022-08-19T01:32:47;17.60;17.60;12.00
34176;PMS7003;20450;49.074;9.158;2022-08-19T01:35:15;17.80;17.80;13.60
34176;PMS7003;20450;49.074;9.158;2022-08-19T01:37:45;19.00;18.00;14.80
34176;PMS7003;20450;49.074;9.158;2022-08-19T01:40:17;18.20;17.40;12.00
34176;PMS7003;20450;49.074;9.158;2022-08-19T01:42:46;16.40;16.40;12.80
34176;PMS7003;20450;49.074;9.158;2022-08-19T01:45:14;19.60;19.60;15.00
34176;PMS7003;20450;49.074;9.158;2022-08-19T01:47:41;17.20;17.00;12.20
34176;PMS7003;20450;49.074;9.158;2022-08-19T01:50:18;20.60;19.40;13.00
34176;PMS7003;20450;49.074;9.158;2022-08-19T01:52:49;18.40;16.60;13.00
34176;PMS7003;20450;49.074;9.158;2022-08-19T01:55:32;15.00;15.00;10.60
34176;PMS7003;20450;49.074;9.158;2022-08-19T01:58:06;17.60;17.60;13.80
34176;PMS7003;20450;49.074;9.158;2022-08-19T02:00:38;16.60;16.60;11.80
34176;PMS7003;20450;49.074;9.158;2022-08-19T02:03:06;17.20;17.20;13.20
34176;PMS7003;20450;49.074;9.158;2022-08-19T02:05:34;17.20;17.20;13.80
34176;PMS7003;20450;49.074;9.158;2022-08-19T02:08:03;19.80;19.60;15.60
34176;PMS7003;20450;49.074;9.158;2022-08-19T02:10:30;17.20;17.20;12.60
34176;PMS7003;20450;49.074;9.158;2022-08-19T02:12:57;16.60;16.60;13.40
34176;PMS7003;20450;49.074;9.158;2022-08-19T02:15:25;18.40;18.40;13.60
34176;PMS7003;20450;49.074;9.158;2022-08-19T02:17:52;19.20;18.20;13.40
34176;PMS7003;20450;49.074;9.158;2022-08-19T02:20:19;17.00;17.00;12.40
34176;PMS7003;20450;49.074;9.158;2022-08-19T02:22:46;18.60;18.20;12.80
34176;PMS7003;20450;49.074;9.158;2022-08-19T02:25:14;21.00;19.60;13.00
34176;PMS7003;20450;49.074;9.158;2022-08-19T02:27:42;16.60;15.20;11.00
34176;PMS7003;20450;49.074;9.158;2022-08-19T02:30:11;19.00;14.80;12.40
34176;PMS7003;20450;49.074;9.158;2022-08-19T02:32:42;16.00;16.00;12.80
34176;PMS7003;20450;49.074;9.158;2022-08-19T02:35:10;18.20;17.00;12.60
34176;PMS7003;20450;49.074;9.158;2022-08-19T02:37:39;20.40;20.00;14.60
34176;PMS7003;20450;49.074;9.158;2022-08-19T02:40:06;19.80;19.20;13.40
34176;PMS7003;20450;49.074;9.158;2022-08-19T02:42:39;18.20;17.60;13.80
34176;PMS7003;20450;49.074;9.158;2022-08-19T02:45:06;22.00;20.50;14.00
34176;PMS7003;20450;49.074;9.158;2022-08-19T02:47:34;19.00;18.25;14.75
34176;PMS7003;20450;49.074;9.158;2022-08-19T02:50:01;19.50;19.50;15.75
34176;PMS7003;20450;49.074;9.158;2022-08-19T02:52:31;21.25;21.25;16.25
34176;PMS7003;20450;49.074;9.158;2022-08-19T02:54:59;19.00;17.75;13.25
34176;PMS7003;20450;49.074;9.158;2022-08-19T02:57:26;16.00;15.00;11.50
34176;PMS7003;20450;49.074;9.158;2022-08-19T02:59:55;17.80;16.60;12.00
34176;PMS7003;20450;49.074;9.158;2022-08-19T03:02:22;18.75;18.75;13.00
34176;PMS7003;20450;49.074;9.158;2022-08-19T03:04:49;19.50;19.50;14.00
34176;PMS7003;20450;49.074;9.158;2022-08-19T03:07:16;20.25;20.25;14.50
34176;PMS7003;20450;49.074;9.158;2022-08-19T03:09:44;16.75;16.00;12.50
34176;PMS7003;20450;49.074;9.158;2022-08-19T03:12:11;19.50;18.50;13.00
34176;PMS7003;20450;49.074;9.158;2022-08-19T03:14:38;18.00;17.00;13.00
34176;PMS7003;20450;49.074;9.158;2022-08-19T03:17:07;18.25;17.00;12.00
34176;PMS7003;20450;49.074;9.158;2022-08-19T03:19:33;18.00;15.75;12.50
34176;PMS7003;20450;49.074;9.158;2022-08-19T03:22:01;20.75;18.50;15.25
34176;PMS7003;20450;49.074;9.158;2022-08-19T03:24:28;21.00;21.00;16.50
34176;PMS7003;20450;49.074;9.158;2022-08-19T03:26:55;20.00;18.80;14.80
34176;PMS7003;20450;49.074;9.158;2022-08-19T03:29:22;23.25;23.25;14.50
34176;PMS7003;20450;49.074;9.158;2022-08-19T03:31:56;22.50;21.25;15.50
34176;PMS7003;20450;49.074;9.158;2022-08-19T03:34:28;22.00;20.00;16.25
34176;PMS7003;20450;49.074;9.158;2022-08-19T03:36:59;22.25;19.75;13.50
34176;PMS7003;20450;49.074;9.158;2022-08-19T03:39:31;21.75;20.00;15.75
34176;PMS7003;20450;49.074;9.158;2022-08-19T03:41:58;20.00;20.00;14.25
34176;PMS7003;20450;49.074;9.158;2022-08-19T03:44:45;11.75;8.50;7.00
34176;PMS7003;20450;49.074;9.158;2022-08-19T03:47:12;20.25;19.75;15.25
34176;PMS7003;20450;49.074;9.158;2022-08-19T03:49:41;21.25;21.25;16.00
34176;PMS7003;20450;49.074;9.158;2022-08-19T03:52:08;21.75;20.25;16.00
34176;PMS7003;20450;49.074;9.158;2022-08-19T03:54:35;20.50;20.50;16.25
34176;PMS7003;20450;49.074;9.158;2022-08-19T03:57:03;22.25;20.25;16.00
34176;PMS7003;20450;49.074;9.158;2022-08-19T03:59:31;21.50;20.50;15.25
34176;PMS7003;20450;49.074;9.158;2022-08-19T04:02:01;22.25;21.75;15.00
34176;PMS7003;20450;49.074;9.158;2022-08-19T04:04:34;16.00;15.50;11.75
34176;PMS7003;20450;49.074;9.158;2022-08-19T04:07:02;18.50;18.25;13.25
34176;PMS7003;20450;49.074;9.158;2022-08-19T04:09:30;24.00;22.00;17.00
34176;PMS7003;20450;49.074;9.158;2022-08-19T04:11:57;23.75;23.75;18.25
34176;PMS7003;20450;49.074;9.158;2022-08-19T04:14:25;23.25;22.00;18.00
34176;PMS7003;20450;49.074;9.158;2022-08-19T04:16:55;23.75;22.50;16.75
34176;PMS7003;20450;49.074;9.158;2022-08-19T04:19:23;20.25;20.25;16.50
34176;PMS7003;20450;49.074;9.158;2022-08-19T04:21:51;23.50;20.75;15.25
34176;PMS7003;20450;49.074;9.158;2022-08-19T04:24:22;24.25;21.50;16.25
34176;PMS7003;20450;49.074;9.158;2022-08-19T04:26:49;23.25;23.25;17.00
34176;PMS7003;20450;49.074;9.158;2022-08-19T04:29:18;25.25;25.25;19.75
34176;PMS7003;20450;49.074;9.158;2022-08-19T04:31:49;23.25;22.25;15.75
34176;PMS7003;20450;49.074;9.158;2022-08-19T04:34:18;28.00;24.50;16.25
34176;PMS7003;20450;49.074;9.158;2022-08-19T04:36:50;23.75;23.50;18.50
34176;PMS7003;20450;49.074;9.158;2022-08-19T04:39:26;23.75;22.75;16.25
34176;PMS7003;20450;49.074;9.158;2022-08-19T04:41:56;27.25;26.75;18.25
34176;PMS7003;20450;49.074;9.158;2022-08-19T04:44:23;28.25;28.25;19.75
34176;PMS7003;20450;49.074;9.158;2022-08-19T04:46:51;26.50;26.00;18.50
34176;PMS7003;20450;49.074;9.158;2022-08-19T04:49:19;29.50;21.75;17.75
34176;PMS7003;20450;49.074;9.158;2022-08-19T04:51:49;31.25;29.50;20.00
34176;PMS7003;20450;49.074;9.158;2022-08-19T04:54:18;28.00;26.25;19.75
34176;PMS7003;20450;49.074;9.158;2022-08-19T04:57:06;27.75;27.75;21.00
34176;PMS7003;20450;49.074;9.158;2022-08-19T04:59:35;29.75;29.75;20.25
34176;PMS7003;20450;49.074;9.158;2022-08-19T05:02:03;26.50;23.75;18.75
34176;PMS7003;20450;49.074;9.158;2022-08-19T05:04:31;26.75;25.75;18.00
34176;PMS7003;20450;49.074;9.158;2022-08-19T05:06:58;25.50;24.00;18.00
34176;PMS7003;20450;49.074;9.158;2022-08-19T05:09:27;26.25;26.25;17.75
34176;PMS7003;20450;49.074;9.158;2022-08-19T05:12:16;27.75;25.50;18.50
34176;PMS7003;20450;49.074;9.158;2022-08-19T05:14:44;26.75;25.50;17.75
34176;PMS7003;20450;49.074;9.158;2022-08-19T05:17:11;27.75;27.75;19.25
34176;PMS7003;20450;49.074;9.158;2022-08-19T05:19:53;33.00;30.50;20.50
34176;PMS7003;20450;49.074;9.158;2022-08-19T05:22:21;27.00;27.00;18.75
34176;PMS7003;20450;49.074;9.158;2022-08-19T05:24:48;18.75;18.75;12.00
34176;PMS7003;20450;49.074;9.158;2022-08-19T05:27:36;25.25;24.50;18.00
34176;PMS7003;20450;49.074;9.158;2022-08-19T05:30:03;26.00;26.00;18.75
34176;PMS7003;20450;49.074;9.158;2022-08-19T05:32:32;26.00;26.00;18.25
34176;PMS7003;20450;49.074;9.158;2022-08-19T05:34:58;24.75;23.50;18.50
34176;PMS7003;20450;49.074;9.158;2022-08-19T05:37:26;25.25;25.00;19.00
34176;PMS7003;20450;49.074;9.158;2022-08-19T05:39:53;26.00;25.00;18.25
34176;PMS7003;20450;49.074;9.158;2022-08-19T05:42:21;25.75;23.25;19.00
34176;PMS7003;20450;49.074;9.158;2022-08-19T05:44:51;25.50;25.50;19.25
34176;PMS7003;20450;49.074;9.158;2022-08-19T05:47:18;24.25;23.75;17.50
34176;PMS7003;20450;49.074;9.158;2022-08-19T05:49:46;30.00;30.00;20.00
34176;PMS7003;20450;49.074;9.158;2022-08-19T05:52:14;25.50;23.75;17.00
34176;PMS7003;20450;49.074;9.158;2022-08-19T05:54:45;27.00;24.00;17.50
34176;PMS7003;20450;49.074;9.158;2022-08-19T05:57:16;23.00;23.00;17.50
34176;PMS7003;20450;49.074;9.158;2022-08-19T05:59:45;24.25;22.25;17.75
34176;PMS7003;20450;49.074;9.158;2022-08-19T06:02:14;27.75;27.25;19.75
34176;PMS7003;20450;49.074;9.158;2022-08-19T06:04:45;24.00;24.00;17.00
34176;PMS7003;20450;49.074;9.158;2022-08-19T06:07:12;22.75;21.75;15.25
34176;PMS7003;20450;49.074;9.158;2022-08-19T06:09:39;26.25;23.25;16.75
34176;PMS7003;20450;49.074;9.158;2022-08-19T06:12:24;27.50;26.75;20.00
34176;PMS7003;20450;49.074;9.158;2022-08-19T06:14:51;23.25;23.25;16.00
34176;PMS7003;20450;49.074;9.158;2022-08-19T06:17:28;29.75;29.00;19.25
34176;PMS7003;20450;49.074;9.158;2022-08-19T06:19:57;25.50;25.50;18.75
34176;PMS7003;20450;49.074;9.158;2022-08-19T06:22:25;30.25;27.50;20.00
34176;PMS7003;20450;49.074;9.158;2022-08-19T06:24:53;27.50;25.50;18.00
34176;PMS7003;20450;49.074;9.158;2022-08-19T06:27:21;23.25;23.25;18.00
34176;PMS7003;20450;49.074;9.158;2022-08-19T06:29:49;28.50;27.25;20.25
34176;PMS7003;20450;49.074;9.158;2022-08-19T06:32:16;27.50;26.50;18.00
34176;PMS7003;20450;49.074;9.158;2022-08-19T06:34:46;25.25;24.50;18.75
34176;PMS7003;20450;49.074;9.158;2022-08-19T06:37:13;26.25;25.00;18.25
34176;PMS7003;20450;49.074;9.158;2022-08-19T06:39:42;28.25;27.50;18.75
34176;PMS7003;20450;49.074;9.158;2022-08-19T06:42:11;21.00;19.50;13.50
34176;PMS7003;20450;49.074;9.158;2022-08-19T06:44:39;26.25;26.25;19.50
34176;PMS7003;20450;49.074;9.158;2022-08-19T06:47:16;26.00;24.00;18.25
34176;PMS7003;20450;49.074;9.158;2022-08-19T06:49:55;22.00;21.50;16.25
34176;PMS7003;20450;49.074;9.158;2022-08-19T06:52:29;25.25;24.00;17.75
34176;PMS7003;20450;49.074;9.158;2022-08-19T06:55:00;23.25;23.25;16.00
34176;PMS7003;20450;49.074;9.158;2022-08-19T06:57:32;23.50;22.25;16.25
34176;PMS7003;20450;49.074;9.158;2022-08-19T07:00:00;22.00;21.50;15.50
34176;PMS7003;20450;49.074;9.158;2022-08-19T07:02:27;23.50;22.00;17.00
34176;PMS7003;20450;49.074;9.158;2022-08-19T07:04:55;22.00;22.00;16.75
34176;PMS7003;20450;49.074;9.158;2022-08-19T07:07:22;20.00;20.00;15.25
34176;PMS7003;20450;49.074;9.158;2022-08-19T07:09:50;23.75;23.00;17.25
34176;PMS7003;20450;49.074;9.158;2022-08-19T07:12:27;23.50;22.25;16.50
34176;PMS7003;20450;49.074;9.158;2022-08-19T07:14:57;24.25;21.75;15.25
34176;PMS7003;20450;49.074;9.158;2022-08-19T07:17:25;26.00;21.50;16.75
34176;PMS7003;20450;49.074;9.158;2022-08-19T07:19:52;20.50;20.50;16.50
34176;PMS7003;20450;49.074;9.158;2022-08-19T07:22:21;20.75;20.75;16.00
34176;PMS7003;20450;49.074;9.158;2022-08-19T07:24:49;22.00;22.00;17.00
34176;PMS7003;20450;49.074;9.158;2022-08-19T07:27:17;19.00;18.25;13.50
34176;PMS7003;20450;49.074;9.158;2022-08-19T07:29:51;19.00;19.00;14.00
34176;PMS7003;20450;49.074;9.158;2022-08-19T07:32:22;20.75;20.75;16.00
34176;PMS7003;20450;49.074;9.158;2022-08-19T07:34:50;20.00;17.75;13.00
34176;PMS7003;20450;49.074;9.158;2022-08-19T07:37:17;20.75;18.75;15.25
34176;PMS7003;20450;49.074;9.158;2022-08-19T07:39:46;19.00;17.25;12.25
34176;PMS7003;20450;49.074;9.158;2022-08-19T07:42:13;25.00;23.50;17.00
34176;PMS7003;20450;49.074;9.158;2022-08-19T07:44:40;21.50;21.50;17.50
34176;PMS7003;20450;49.074;9.158;2022-08-19T07:47:16;24.50;23.00;17.50
34176;PMS7003;20450;49.074;9.158;2022-08-19T07:50:05;20.00;20.00;15.75
34176;PMS7003;20450;49.074;9.158;2022-08-19T07:52:36;21.50;18.00;12.75
34176;PMS7003;20450;49.074;9.158;2022-08-19T07:55:07;21.75;21.25;15.75
34176;PMS7003;20450;49.074;9.158;2022-08-19T07:57:56;24.00;22.50;15.75
34176;PMS7003;20450;49.074;9.158;2022-08-19T08:00:24;20.50;19.50;15.00
34176;PMS7003;20450;49.074;9.158;2022-08-19T08:02:52;20.00;18.75;14.50
34176;PMS7003;20450;49.074;9.158;2022-08-19T08:05:21;25.25;23.75;17.50
34176;PMS7003;20450;49.074;9.158;2022-08-19T08:07:48;20.25;18.25;13.75
34176;PMS7003;20450;49.074;9.158;2022-08-19T08:10:17;21.50;21.00;14.50
34176;PMS7003;20450;49.074;9.158;2022-08-19T08:12:47;21.40;20.80;15.00
34176;PMS7003;20450;49.074;9.158;2022-08-19T08:15:34;19.80;19.00;14.60
34176;PMS7003;20450;49.074;9.158;2022-08-19T08:18:08;22.00;17.60;13.20
34176;PMS7003;20450;49.074;9.158;2022-08-19T08:20:35;20.20;18.00;13.20
34176;PMS7003;20450;49.074;9.158;2022-08-19T08:23:02;18.60;18.20;14.00
34176;PMS7003;20450;49.074;9.158;2022-08-19T08:25:30;20.50;19.25;15.25
34176;PMS7003;20450;49.074;9.158;2022-08-19T08:28:00;16.60;16.60;13.20
34176;PMS7003;20450;49.074;9.158;2022-08-19T08:30:30;16.00;16.00;12.60
34176;PMS7003;20450;49.074;9.158;2022-08-19T08:32:58;19.00;19.00;15.25
34176;PMS7003;20450;49.074;9.158;2022-08-19T08:35:25;17.80;17.80;13.60
34176;PMS7003;20450;49.074;9.158;2022-08-19T08:37:53;17.40;16.40;12.80
34176;PMS7003;20450;49.074;9.158;2022-08-19T08:40:23;20.25;20.25;16.00
34176;PMS7003;20450;49.074;9.158;2022-08-19T08:42:59;19.40;18.20;13.20
34176;PMS7003;20450;49.074;9.158;2022-08-19T08:45:38;18.80;18.80;16.40
34176;PMS7003;20450;49.074;9.158;2022-08-19T08:48:20;15.60;15.60;12.60
34176;PMS7003;20450;49.074;9.158;2022-08-19T08:51:02;18.00;18.00;13.25
34176;PMS7003;20450;49.074;9.158;2022-08-19T08:53:34;19.00;17.50;13.75
34176;PMS7003;20450;49.074;9.158;2022-08-19T08:56:08;17.00;17.00;13.00
34176;PMS7003;20450;49.074;9.158;2022-08-19T08:58:48;18.50;18.50;12.75
34176;PMS7003;20450;49.074;9.158;2022-08-19T09:01:23;14.00;13.25;10.00
34176;PMS7003;20450;49.074;9.158;2022-08-19T09:03:56;16.00;16.00;13.40
34176;PMS7003;20450;49.074;9.158;2022-08-19T09:06:29;17.40;16.40;14.00
34176;PMS7003;20450;49.074;9.158;2022-08-19T09:09:10;17.20;16.40;12.20
34176;PMS7003;20450;49.074;9.158;2022-08-19T09:11:50;16.40;16.40;11.20
34176;PMS7003;20450;49.074;9.158;2022-08-19T09:14:36;16.60;16.60;12.20
34176;PMS7003;20450;49.074;9.158;2022-08-19T09:17:17;17.20;16.60;14.40
34176;PMS7003;20450;49.074;9.158;2022-08-19T09:19:53;16.40;16.40;13.00
34176;PMS7003;20450;49.074;9.158;2022-08-19T09:22:22;16.00;16.00;12.80
34176;PMS7003;20450;49.074;9.158;2022-08-19T09:24:53;18.40;18.00;13.40
34176;PMS7003;20450;49.074;9.158;2022-08-19T09:27:21;16.20;15.60;12.00
34176;PMS7003;20450;49.074;9.158;2022-08-19T09:30:14;15.00;15.00;11.40
34176;PMS7003;20450;49.074;9.158;2022-08-19T09:32:44;13.60;13.20;11.00
34176;PMS7003;20450;49.074;9.158;2022-08-19T09:35:12;17.20;15.40;13.20
34176;PMS7003;20450;49.074;9.158;2022-08-19T09:37:40;15.60;14.40;11.80
34176;PMS7003;20450;49.074;9.158;2022-08-19T09:40:09;14.60;13.60;11.80
34176;PMS7003;20450;49.074;9.158;2022-08-19T09:42:38;14.80;14.80;11.60
34176;PMS7003;20450;49.074;9.158;2022-08-19T09:45:18;13.40;12.60;9.60
34176;PMS7003;20450;49.074;9.158;2022-08-19T09:47:47;15.40;14.40;11.80
34176;PMS7003;20450;49.074;9.158;2022-08-19T09:50:15;12.00;12.00;9.40
34176;PMS7003;20450;49.074;9.158;2022-08-19T09:52:43;16.80;16.80;12.20
34176;PMS7003;20450;49.074;9.158;2022-08-19T09:55:23;14.20;13.40;12.20
34176;PMS7003;20450;49.074;9.158;2022-08-19T09:57:58;12.40;12.40;10.00
34176;PMS7003;20450;49.074;9.158;2022-08-19T10:00:28;14.20;12.80;9.80
34176;PMS7003;20450;49.074;9.158;2022-08-19T10:02:56;14.20;13.80;11.20
34176;PMS7003;20450;49.074;9.158;2022-08-19T10:05:23;12.40;12.40;10.20
34176;PMS7003;20450;49.074;9.158;2022-08-19T10:07:52;16.80;14.80;11.00
34176;PMS7003;20450;49.074;9.158;2022-08-19T10:10:26;10.40;10.20;8.80
34176;PMS7003;20450;49.074;9.158;2022-08-19T10:12:53;10.40;10.40;9.00
34176;PMS7003;20450;49.074;9.158;2022-08-19T10:15:20;9.00;9.00;7.60
34176;PMS7003;20450;49.074;9.158;2022-08-19T10:17:56;12.20;11.00;9.40
34176;PMS7003;20450;49.074;9.158;2022-08-19T10:20:24;8.80;8.80;7.60
34176;PMS7003;20450;49.074;9.158;2022-08-19T10:22:51;12.20;11.40;8.60
34176;PMS7003;20450;49.074;9.158;2022-08-19T10:25:19;10.20;10.20;8.40
34176;PMS7003;20450;49.074;9.158;2022-08-19T10:27:46;8.80;8.80;7.20
34176;PMS7003;20450;49.074;9.158;2022-08-19T10:30:17;10.00;9.80;8.40
34176;PMS7003;20450;49.074;9.158;2022-08-19T10:32:45;9.80;9.80;7.60
34176;PMS7003;20450;49.074;9.158;2022-08-19T10:35:14;7.80;7.80;7.00
34176;PMS7003;20450;49.074;9.158;2022-08-19T10:37:47;9.20;9.20;7.20
34176;PMS7003;20450;49.074;9.158;2022-08-19T10:40:22;7.80;7.80;7.00
34176;PMS7003;20450;49.074;9.158;2022-08-19T10:42:49;10.00;10.00;7.40
34176;PMS7003;20450;49.074;9.158;2022-08-19T10:45:16;9.40;9.40;8.40
34176;PMS7003;20450;49.074;9.158;2022-08-19T10:47:43;8.40;8.40;7.40
34176;PMS7003;20450;49.074;9.158;2022-08-19T10:50:10;9.00;8.80;7.00
34176;PMS7003;20450;49.074;9.158;2022-08-19T10:52:39;9.00;8.80;7.60
34176;PMS7003;20450;49.074;9.158;2022-08-19T10:55:17;9.80;9.80;7.80
34176;PMS7003;20450;49.074;9.158;2022-08-19T10:57:46;10.40;9.60;7.00
34176;PMS7003;20450;49.074;9.158;2022-08-19T11:00:29;10.40;10.40;8.40
34176;PMS7003;20450;49.074;9.158;2022-08-19T11:02:56;7.60;7.60;5.40
34176;PMS7003;20450;49.074;9.158;2022-08-19T11:05:23;8.60;7.00;6.00
34176;PMS7003;20450;49.074;9.158;2022-08-19T11:07:52;10.00;10.00;7.60
34176;PMS7003;20450;49.074;9.158;2022-08-19T11:10:19;7.20;7.20;6.20
34176;PMS7003;20450;49.074;9.158;2022-08-19T11:12:48;7.20;7.20;6.20
34176;PMS7003;20450;49.074;9.158;2022-08-19T11:15:15;6.80;6.80;4.60
34176;PMS7003;20450;49.074;9.158;2022-08-19T11:17:43;9.60;9.60;7.60
34176;PMS7003;20450;49.074;9.158;2022-08-19T11:20:11;9.40;9.40;7.40
34176;PMS7003;20450;49.074;9.158;2022-08-19T11:22:39;9.40;9.40;7.20
34176;PMS7003;20450;49.074;9.158;2022-08-19T11:25:09;8.00;8.00;6.00
34176;PMS7003;20450;49.074;9.158;2022-08-19T11:27:38;7.00;7.00;6.00
34176;PMS7003;20450;49.074;9.158;2022-08-19T11:30:07;9.00;9.00;7.00
34176;PMS7003;20450;49.074;9.158;2022-08-19T11:32:39;7.80;7.80;7.00
34176;PMS7003;20450;49.074;9.158;2022-08-19T11:35:12;8.60;8.60;6.80
34176;PMS7003;20450;49.074;9.158;2022-08-19T11:37:39;8.00;8.00;6.00
34176;PMS7003;20450;49.074;9.158;2022-08-19T11:40:07;9.00;8.00;6.20
34176;PMS7003;20450;49.074;9.158;2022-08-19T11:42:37;11.40;9.60;7.80
34176;PMS7003;20450;49.074;9.158;2022-08-19T11:45:04;9.00;9.00;7.00
34176;PMS7003;20450;49.074;9.158;2022-08-19T11:47:32;8.40;8.40;6.20
34176;PMS7003;20450;49.074;9.158;2022-08-19T11:49:59;8.00;8.00;6.60
34176;PMS7003;20450;49.074;9.158;2022-08-19T11:52:26;9.00;9.00;7.80
34176;PMS7003;20450;49.074;9.158;2022-08-19T11:54:53;9.80;9.80;8.80
34176;PMS7003;20450;49.074;9.158;2022-08-19T11:57:21;8.60;8.60;7.20
34176;PMS7003;20450;49.074;9.158;2022-08-19T11:59:48;12.00;12.00;9.00
34176;PMS7003;20450;49.074;9.158;2022-08-19T12:02:16;8.00;8.00;7.00
34176;PMS7003;20450;49.074;9.158;2022-08-19T12:04:43;8.00;8.00;6.20
34176;PMS7003;20450;49.074;9.158;2022-08-19T12:07:10;11.00;10.60;8.00
34176;PMS7003;20450;49.074;9.158;2022-08-19T12:09:37;8.80;8.00;6.00
34176;PMS7003;20450;49.074;9.158;2022-08-19T12:12:08;7.80;7.80;6.80
34176;PMS7003;20450;49.074;9.158;2022-08-19T12:14:37;8.20;7.60;5.00
34176;PMS7003;20450;49.074;9.158;2022-08-19T12:17:04;6.60;6.60;5.00
34176;PMS7003;20450;49.074;9.158;2022-08-19T12:19:31;9.80;9.80;8.60
34176;PMS7003;20450;49.074;9.158;2022-08-19T12:21:58;10.60;9.80;6.60
34176;PMS7003;20450;49.074;9.158;2022-08-19T12:24:30;8.60;8.40;7.20
34176;PMS7003;20450;49.074;9.158;2022-08-19T12:28:10;10.40;8.00;6.80
34176;PMS7003;20450;49.074;9.158;2022-08-19T12:30:40;10.20;9.20;8.20
34176;PMS7003;20450;49.074;9.158;2022-08-19T12:33:07;9.00;9.00;8.20
34176;PMS7003;20450;49.074;9.158;2022-08-19T12:35:34;13.80;10.20;8.60
34176;PMS7003;20450;49.074;9.158;2022-08-19T12:38:11;10.00;10.00;7.80
34176;PMS7003;20450;49.074;9.158;2022-08-19T12:40:38;8.20;8.20;7.00
34176;PMS7003;20450;49.074;9.158;2022-08-19T12:43:05;13.20;13.20;10.40
34176;PMS7003;20450;49.074;9.158;2022-08-19T12:45:33;10.40;10.40;9.00
34176;PMS7003;20450;49.074;9.158;2022-08-19T12:48:04;12.00;12.00;9.00
34176;PMS7003;20450;49.074;9.158;2022-08-19T12:50:51;8.00;8.00;6.00
34176;PMS7003;20450;49.074;9.158;2022-08-19T12:53:18;9.00;9.00;7.60
34176;PMS7003;20450;49.074;9.158;2022-08-19T12:55:45;8.00;8.00;7.00
34176;PMS7003;20450;49.074;9.158;2022-08-19T12:58:12;12.20;12.20;8.00
34176;PMS7003;20450;49.074;9.158;2022-08-19T13:00:39;9.00;9.00;7.40
34176;PMS7003;20450;49.074;9.158;2022-08-19T13:03:08;10.20;10.00;9.00
34176;PMS7003;20450;49.074;9.158;2022-08-19T13:05:35;9.20;9.20;7.80
34176;PMS7003;20450;49.074;9.158;2022-08-19T13:08:02;11.20;10.20;8.40
34176;PMS7003;20450;49.074;9.158;2022-08-19T13:10:31;9.00;8.80;7.00
34176;PMS7003;20450;49.074;9.158;2022-08-19T13:13:01;8.20;8.20;5.80
34176;PMS7003;20450;49.074;9.158;2022-08-19T13:15:32;11.40;11.40;8.80
34176;PMS7003;20450;49.074;9.158;2022-08-19T13:18:03;9.80;9.80;8.80
34176;PMS7003;20450;49.074;9.158;2022-08-19T13:20:32;11.60;11.60;8.80
34176;PMS7003;20450;49.074;9.158;2022-08-19T13:22:59;10.60;10.60;8.60
34176;PMS7003;20450;49.074;9.158;2022-08-19T13:25:25;11.20;11.00;9.00
34176;PMS7003;20450;49.074;9.158;2022-08-19T13:27:52;12.00;12.00;9.00
34176;PMS7003;20450;49.074;9.158;2022-08-19T13:30:20;10.00;10.00;8.40
34176;PMS7003;20450;49.074;9.158;2022-08-19T13:32:48;10.20;9.60;8.00
34176;PMS7003;20450;49.074;9.158;2022-08-19T13:35:15;9.20;9.20;8.00
34176;PMS7003;20450;49.074;9.158;2022-08-19T13:37:44;10.20;10.20;8.00
34176;PMS7003;20450;49.074;9.158;2022-08-19T13:40:12;10.40;10.40;8.60
34176;PMS7003;20450;49.074;9.158;2022-08-19T13:42:43;9.60;9.60;8.00
34176;PMS7003;20450;49.074;9.158;2022-08-19T13:45:11;7.00;7.00;5.80
34176;PMS7003;20450;49.074;9.158;2022-08-19T13:47:39;7.00;7.00;6.00
34176;PMS7003;20450;49.074;9.158;2022-08-19T13:50:07;11.40;11.40;10.00
34176;PMS7003;20450;49.074;9.158;2022-08-19T13:52:35;11.00;10.80;9.00
34176;PMS7003;20450;49.074;9.158;2022-08-19T13:55:04;9.80;9.80;7.00
34176;PMS7003;20450;49.074;9.158;2022-08-19T13:57:33;9.80;9.80;8.60
34176;PMS7003;20450;49.074;9.158;2022-08-19T14:00:01;10.40;10.40;7.60
34176;PMS7003;20450;49.074;9.158;2022-08-19T14:02:31;10.00;10.00;8.80
34176;PMS7003;20450;49.074;9.158;2022-08-19T14:04:58;10.20;10.20;8.40
34176;PMS7003;20450;49.074;9.158;2022-08-19T14:07:25;10.40;10.40;9.00
34176;PMS7003;20450;49.074;9.158;2022-08-19T14:09:52;12.40;12.40;10.00
34176;PMS7003;20450;49.074;9.158;2022-08-19T14:12:20;10.60;10.60;8.20